Data for 06/05/2014

Time Sea-Level Adjusted Pressure Absolute Pressure Temperature Relative Humidity Dew Point   
(mb) (inHg) (mb) (inHg) (C) (F) (%) (C) (F)
00:05 1017 30.03 846 24.98 10.4 50.6 54 1.5 34.7
00:10 1017 30.03 846 24.98 10.5 50.9 54 1.6 34.9
00:15 1017 30.03 846 24.98 10.5 50.9 52 1.1 33.9
00:20 1017 30.03 846 24.98 10.6 51.1 51 1 33.9
00:25 1017 30.03 846 24.98 10.7 51.3 50 0.8 33.5
00:30 1017 30.03 846 24.98 10.8 51.4 50 0.9 33.6
00:35 1017 30.03 846 24.98 10.7 51.2 52 1.2 34.1
00:40 1017 30.03 846 24.98 10.5 50.8 52 1.2 34.1
00:45 1017 30.03 846 24.98 10.4 50.7 54 1.4 34.5
00:50 1017 30.03 846 24.98 10.2 50.3 54 1.4 34.6
00:55 1017 30.03 846 24.98 10 50.1 55 1.4 34.6
01:00 1017 30.03 846 24.98 10.1 50.1 54 1.3 34.3
01:05 1017 30.03 846 24.98 10.1 50.2 55 1.4 34.5
01:10 1017 30.03 846 24.98 10 50 54 1.1 34
01:15 1017 30.03 846 24.98 10 50 54 1.1 34
01:20 1017 30.03 846 24.98 10 50 53 1 33.9
01:25 1017 30.03 846 24.98 10 50 54 1.3 34.3
01:30 1017 30.03 846 24.98 9.7 49.5 55 1 33.9
01:35 1017 30.03 846 24.98 10 49.9 51 0.4 32.8
01:40 1017 30.03 846 24.98 10.3 50.6 51 0.7 33.2
01:45 1017 30.03 846 24.98 10 50.1 53 0.8 33.5
01:50 1017 30.03 846 24.98 9.7 49.5 54 1 33.7
01:55 1017 30.03 846 24.98 9.5 49 54 0.8 33.4
02:00 1017 30.03 846 24.98 9.3 48.7 54 0.5 33
02:05 1017 30.03 846 24.98 9.6 49.3 53 0.4 32.7
02:10 1017 30.03 846 24.98 9.7 49.5 53 0.6 33.1
02:15 1017 30.03 846 24.98 9.5 49.2 54 0.6 33.1
02:20 1017 30.03 846 24.98 9.4 49 54 0.6 33
02:25 1017 30.03 846 24.98 9.4 48.8 54 0.6 33.1
02:30 1017 30.03 846 24.98 9.2 48.6 55 0.8 33.4
02:35 1017 30.03 846 24.98 9 48.3 58 1.2 34.1
02:40 1017 30.03 846 24.98 9 48.1 58 1.2 34.2
02:45 1017 30.03 846 24.98 8.8 47.9 59 1.2 34.2
02:50 1017 30.03 846 24.98 8.8 47.8 58 1.1 34
02:55 1017 30.03 846 24.98 8.4 47.1 60 1.2 34.2
03:00 1017 30.03 846 24.98 8.1 46.6 61 1.1 33.9
03:05 1017 30.03 846 24.98 8.2 46.7 60 0.8 33.5
03:10 1017 30.03 846 24.98 8.2 46.7 60 1 33.7
03:15 1017 30.03 846 24.98 8 46.4 60 0.8 33.5
03:20 1017 30.03 846 24.98 8.1 46.6 59 0.5 32.9
03:25 1017 30.03 846 24.98 8.4 47.1 56 0.2 32.3
03:30 1017 30.03 846 24.98 8.7 47.6 55 0.2 32.4
03:35 1017 30.03 846 24.98 8.9 48.1 53 0 32
03:40 1017 30.03 846 24.98 8.9 48.1 55 0.4 32.8
03:45 1017 30.03 846 24.98 8.5 47.4 57 0.5 32.8
03:50 1017 30.03 846 24.98 8.1 46.6 59 0.5 32.9
03:55 1017 30.03 846 24.98 7.7 45.9 61 0.8 33.4
04:00 1017 30.03 847 25.01 7.6 45.7 61 0.5 32.9
04:05 1017 30.03 847 25.01 7.7 45.8 60 0.5 32.8
04:10 1017 30.03 847 25.01 7.5 45.5 61 0.5 33
04:15 1017 30.03 847 25.01 7.5 45.4 60 0.3 32.6
04:20 1017 30.03 846 24.98 7.2 45 62 0.5 32.8
04:25 1017 30.03 846 24.98 6.9 44.5 63 0.3 32.5
04:30 1017 30.03 846 24.98 6.8 44.2 64 0.5 32.9
04:35 1017 30.03 847 25.01 6.6 43.8 65 0.4 32.8
04:40 1017 30.03 847 25.01 6.5 43.8 65 0.4 32.7
04:45 1017 30.03 847 25.01 6.7 44.1 63 0.2 32.3
04:50 1017 30.03 847 25.01 7 44.7 61 0.1 32.2
04:55 1017 30.03 847 25.01 7.5 45.5 59 0 32
05:00 1017 30.03 846 24.98 7.8 46 58 0.1 32.2
05:05 1017 30.03 846 24.98 7.5 45.4 63 0.8 33.5
05:10 1017 30.03 846 24.98 7 44.5 63 0.5 32.9
05:15 1017 30.03 847 25.01 7 44.7 64 0.7 33.3
05:20 1017 30.03 847 25.01 7 44.6 63 0.5 32.9
05:25 1017 30.03 846 24.98 7 44.6 64 0.7 33.2
05:30 1017 30.03 846 24.98 7.1 44.7 63 0.4 32.8
05:35 1017 30.03 846 24.98 7.2 44.9 63 0.7 33.3
05:40 1017 30.03 846 24.98 7.1 44.8 64 0.7 33.3
05:45 1017 30.03 846 24.98 7.1 44.9 63 0.6 33
05:50 1017 30.03 846 24.98 7.4 45.4 61 0.4 32.8
05:55 1017 30.03 846 24.98 8.1 46.5 58 0.3 32.5
06:00 1017 30.03 846 24.98 8.6 47.5 57 0.7 33.2
06:05 1017 30.03 846 24.98 8.9 48 57 0.8 33.4
06:10 1017 30.03 846 24.98 9.1 48.4 57 1 33.8
06:15 1017 30.03 846 24.98 9.4 48.9 56 1.2 34.1
06:20 1017 30.03 846 24.98 9.6 49.3 56 1.3 34.4
06:25 1017 30.03 847 25.01 9.8 49.6 55 1.3 34.3
06:30 1017 30.03 847 25.01 10.3 50.5 53 1.3 34.3
06:35 1017 30.03 846 24.98 10.8 51.4 53 1.6 35
06:40 1017 30.03 847 25.01 11 51.9 52 1.7 35
06:45 1017 30.03 847 25.01 11.6 52.9 50 1.7 35
06:50 1017 30.03 847 25.01 12.1 53.9 48 1.4 34.5
06:55 1017 30.03 847 25.01 12.9 55.2 47 2 35.6
07:00 1017 30.03 847 25.01 13.2 55.7 48 2.4 36.4
07:05 1017 30.03 847 25.01 13.2 55.7 45 1.7 35
07:10 1017 30.03 847 25.01 13.7 56.6 44 1.7 35
07:15 1017 30.03 847 25.01 14.7 58.4 41 1.7 35.1
07:20 1017 30.03 847 25.01 15.2 59.4 41 2.3 36.1
07:25 1017 30.03 846 24.98 15 59 43 2.6 36.7
07:30 1017 30.03 846 24.98 15 59 42 2.3 36.1
07:35 1017 30.03 847 25.01 15.4 59.7 42 2.5 36.5
07:40 1017 30.03 846 24.98 15.6 60 42 2.6 36.7
07:45 1017 30.03 846 24.98 15.9 60.6 40 2.3 36.1
07:50 1017 30.03 846 24.98 16.4 61.4 38 2.3 36.1
07:55 1017 30.03 846 24.98 16.4 61.5 38 2.1 35.8
08:00 1017 30.03 846 24.98 16.3 61.3 38 2.2 35.9
08:05 1017 30.03 846 24.98 16.5 61.6 36 1.4 34.5
08:10 1017 30.03 846 24.98 16.9 62.5 37 2.2 36
08:15 1017 30.03 846 24.98 16.8 62.2 36 1.9 35.4
08:20 1017 30.03 846 24.98 17.2 62.9 35 1.8 35.2
08:25 1017 30.03 846 24.98 17.8 64.1 35 2.3 36.2
08:30 1017 30.03 846 24.98 17.8 64.1 35 2.1 35.8
08:35 1017 30.03 846 24.98 17.6 63.7 34 1.7 35.1
08:40 1017 30.03 846 24.98 17.3 63.1 37 2.6 36.8
08:45 1017 30.03 846 24.98 16.8 62.2 39 2.7 36.9
08:50 1017 30.03 846 24.98 17.1 62.7 37 2.5 36.6
08:55 1017 30.03 846 24.98 17.1 62.8 35 1.7 35.1
09:00 1017 30.03 846 24.98 17.8 64.1 35 2.1 35.8
09:05 1017 30.03 846 24.98 17.6 63.7 37 2.9 37.3
09:10 1017 30.03 846 24.98 17.4 63.3 37 2.7 36.8
09:15 1017 30.03 846 24.98 17.4 63.3 37 2.7 36.9
09:20 1017 30.03 846 24.98 18.1 64.5 34 2.1 35.7
09:25 1017 30.03 846 24.98 19.2 66.5 30 1.5 34.7
09:30 1017 30.03 846 24.98 19.1 66.4 32 2.1 35.7
09:35 1017 30.03 846 24.98 18 64.4 31 0.9 33.7
09:40 1017 30.03 846 24.98 17.9 64.3 32 1.1 34
09:45 1017 30.03 846 24.98 18.2 64.8 32 1.3 34.4
09:50 1017 30.03 846 24.98 18.3 65 28 -0.3 31.5
09:55 1017 30.03 846 24.98 18.2 64.7 29 0.1 32.3
10:00 1017 30.03 846 24.98 18.3 64.9 26 -1.4 29.4
10:05 1017 30.03 846 24.98 18.3 64.9 28 -0.4 31.2
10:10 1017 30.03 846 24.98 18.5 65.4 28 -0.4 31.3
10:15 1017 30.03 846 24.98 18.5 65.3 26 -1.5 29.4
10:20 1017 30.03 846 24.98 19.3 66.8 25 -0.8 30.6
10:25 1017 30.03 846 24.98 18.5 65.2 27 -0.8 30.5
10:30 1017 30.03 846 24.98 19.4 67 24 -1.3 29.6
10:35 1017 30.03 846 24.98 19.4 66.8 25 -1.3 29.7
10:40 1017 30.03 846 24.98 19 66.1 24 -2.1 28.3
10:45 1017 30.03 846 24.98 18.8 65.9 24 -2.3 27.9
10:50 1016 30 846 24.98 19.2 66.5 24 -1.5 29.2
10:55 1016 30 846 24.98 19.9 67.7 23 -1.8 28.8
11:00 1016 30 846 24.98 19.4 66.9 24 -1.7 28.9
11:05 1016 30 846 24.98 19.2 66.6 24 -1.8 28.8
11:10 1016 30 846 24.98 20.2 68.4 25 -0.6 31
11:15 1016 30 846 24.98 19.7 67.5 26 -0.3 31.5
11:20 1016 30 845 24.95 19.4 66.9 24 -1.4 29.5
11:25 1016 30 845 24.95 19.6 67.3 24 -1.1 30.1
11:30 1016 30 845 24.95 20.6 69.1 24 -0.5 31.2
11:35 1016 30 845 24.95 20.8 69.5 22 -1.4 29.5
11:40 1016 30 845 24.95 20.3 68.6 24 -0.9 30.4
11:45 1016 30 845 24.95 20.4 68.8 24 -0.6 30.9
11:50 1016 30 845 24.95 20 68 24 -0.8 30.6
11:55 1016 30 845 24.95 20 68 25 -0.7 30.7
12:00 1016 30 845 24.95 21 69.8 23 -0.5 31.1
12:05 1016 30 845 24.95 21.4 70.6 23 -0.5 31.1
12:10 1016 30 845 24.95 21.6 70.8 23 -0.3 31.4
12:15 1016 30 845 24.95 21.8 71.2 23 0.1 32.3
12:20 1016 30 845 24.95 21.8 71.3 22 -0.8 30.5
12:25 1016 30 845 24.95 22.2 72 22 -0.5 31.1
12:30 1016 30 845 24.95 22 71.6 23 0.1 32.2
12:35 1016 30 845 24.95 21.9 71.4 22 -0.4 31.3
12:40 1016 30 845 24.95 21.9 71.5 23 -0.2 31.6
12:45 1016 30 845 24.95 21.2 70.1 25 0.4 32.7
12:50 1016 30 845 24.95 21 69.9 25 0.4 32.7
12:55 1016 30 845 24.95 21.5 70.8 24 0.2 32.4
13:00 1016 30 845 24.95 21.9 71.3 23 -0.1 31.8
13:05 1016 30 845 24.95 22.3 72.1 24 1 33.9
13:10 1016 30 845 24.95 22.3 72.1 24 0.7 33.3
13:15 1016 30 845 24.95 22.2 72 24 0.6 33.1
13:20 1016 30 845 24.95 22.5 72.6 23 0.3 32.6
13:25 1016 30 845 24.95 22.2 72 23 0.4 32.6
13:30 1016 30 845 24.95 22.1 71.7 24 0.6 33.1
13:35 1016 30 845 24.95 22.4 72.4 23 0.6 33
13:40 1016 30 845 24.95 22.3 72.1 22 -0.4 31.2
13:45 1016 30 845 24.95 22.9 73.2 23 0.9 33.6
13:50 1016 30 845 24.95 23.3 74 22 0.4 32.8
13:55 1016 30 845 24.95 23.1 73.6 22 0.2 32.4
14:00 1016 30 845 24.95 22.6 72.6 22 -0.2 31.6
14:05 1016 30 845 24.95 21.9 71.4 23 0.1 32.1
14:10 1016 30 845 24.95 22.9 73.2 21 -0.6 31
14:15 1016 30 845 24.95 23.2 73.7 21 0 32.1
14:20 1016 30 845 24.95 22.8 73.1 22 0 32.1
14:25 1015 29.97 845 24.95 22.8 73 21 -0.6 30.9
14:30 1015 29.97 845 24.95 23 73.3 20 -0.9 30.4
14:35 1015 29.97 845 24.95 23.9 75 21 0.6 33
14:40 1015 29.97 844 24.92 23.9 75.1 20 0 32.1
14:45 1015 29.97 844 24.92 24 75.3 20 0.1 32.1
14:50 1015 29.97 845 24.95 23.1 73.5 22 0.2 32.4
14:55 1015 29.97 844 24.92 22.6 72.7 22 0 32.1
15:00 1015 29.97 844 24.92 22.9 73.2 20 -0.7 30.7
15:05 1015 29.97 844 24.92 22.7 72.9 23 0.9 33.6
15:10 1015 29.97 844 24.92 22.5 72.5 21 -0.9 30.4
15:15 1015 29.97 844 24.92 22.9 73.2 21 -0.5 31.2
15:20 1015 29.97 844 24.92 23.4 74.1 21 -0.1 31.8
15:25 1015 29.97 844 24.92 24 75.2 21 0.5 32.8
15:30 1015 29.97 844 24.92 23.6 74.5 20 -0.4 31.3
15:35 1015 29.97 844 24.92 23.6 74.4 19 -1.1 30
15:40 1015 29.97 844 24.92 23.2 73.7 21 0 32.1
15:45 1015 29.97 844 24.92 23 73.4 22 0.3 32.6
15:50 1015 29.97 844 24.92 23.4 74 21 -0 31.9
15:55 1015 29.97 844 24.92 23.5 74.2 21 0.4 32.7
16:00 1015 29.97 844 24.92 24 75.2 20 0.1 32.2
16:05 1015 29.97 844 24.92 24 75.3 21 0.7 33.3
16:10 1015 29.97 844 24.92 22.8 73.1 22 0.3 32.6
16:15 1015 29.97 844 24.92 21.8 71.3 23 -0.2 31.7
16:20 1015 29.97 844 24.92 21.8 71.2 23 -0.3 31.4
16:25 1015 29.97 844 24.92 21.5 70.6 23 -0.3 31.5
16:30 1015 29.97 844 24.92 21.6 70.9 22 -0.6 30.9
16:35 1015 29.97 844 24.92 22.5 72.5 21 -1 30.2
16:40 1015 29.97 844 24.92 22.1 71.8 22 -0.5 31.2
16:45 1015 29.97 844 24.92 22.2 72 21 -0.9 30.4
16:50 1015 29.97 844 24.92 22.1 71.8 21 -0.8 30.6
16:55 1015 29.97 844 24.92 21.9 71.5 22 -0.7 30.7
17:00 1015 29.97 844 24.92 21.9 71.4 22 -0.6 31
17:05 1015 29.97 844 24.92 21.8 71.3 21 -1.4 29.4
17:10 1015 29.97 844 24.92 22.1 71.8 21 -0.9 30.4
17:15 1015 29.97 844 24.92 21.8 71.2 21 -1.1 30
17:20 1015 29.97 844 24.92 22.1 71.7 22 -0.6 30.9
17:25 1015 29.97 844 24.92 22.8 73 20 -0.8 30.5
17:30 1015 29.97 844 24.92 23.2 73.8 20 -1 30.2
17:35 1015 29.97 844 24.92 23.5 74.3 20 -0.7 30.7
17:40 1015 29.97 844 24.92 22.4 72.3 21 -1 30.2
17:45 1015 29.97 844 24.92 21.7 71.1 21 -1.1 30.1
17:50 1015 29.97 844 24.92 22.5 72.5 20 -1.2 29.9
17:55 1015 29.97 844 24.92 22.9 73.3 20 -1.2 29.8
18:00 1015 29.97 844 24.92 22.5 72.5 21 -0.6 30.9
18:05 1015 29.97 845 24.95 21.8 71.3 20 -2.2 28.1
18:10 1015 29.97 845 24.95 21.7 71 20 -2.1 28.1
18:15 1015 29.97 845 24.95 21.9 71.3 21 -1.5 29.2
18:20 1015 29.97 845 24.95 21.7 71.1 21 -1.2 29.8
18:25 1016 30 845 24.95 21.4 70.6 20 -1.9 28.5
18:30 1016 30 845 24.95 21.1 69.9 21 -1.9 28.6
18:35 1016 30 845 24.95 19.8 67.7 40 6.1 42.9
18:40 1016 30 845 24.95 17.9 64.2 46 6.3 43.4
18:45 1016 30 845 24.95 17.3 63.1 47 6.1 42.9
18:50 1016 30 845 24.95 16.9 62.5 49 6.1 43.1
18:55 1016 30 845 24.95 16.6 61.9 50 6.2 43.2
19:00 1016 30 845 24.95 16.3 61.3 51 6.2 43.2
19:05 1016 30 845 24.95 16 60.8 52 6.3 43.4
19:10 1016 30 845 24.95 15.7 60.3 54 6.6 43.8
19:15 1016 30 845 24.95 15.5 59.8 55 6.6 43.9
19:20 1016 30 845 24.95 15.2 59.3 56 6.5 43.7
19:25 1016 30 846 24.98 14.9 58.8 57 6.5 43.6
19:30 1016 30 846 24.98 14.7 58.4 58 6.5 43.7
19:35 1016 30 846 24.98 14.5 58.2 58 6.4 43.5
19:40 1016 30 846 24.98 14.4 57.9 59 6.4 43.6
19:45 1016 30 846 24.98 14.1 57.4 59 6.4 43.5
19:50 1016 30 846 24.98 13.9 57.1 59 6.1 43
19:55 1016 30 846 24.98 13.8 56.8 60 6.2 43.1
20:00 1017 30.03 846 24.98 13.6 56.6 59 6 42.7
20:05 1017 30.03 846 24.98 13.5 56.2 60 5.8 42.4
20:10 1017 30.03 846 24.98 13.3 56 59 5.6 42.1
20:15 1017 30.03 846 24.98 13.2 55.7 59 5.5 41.9
20:20 1017 30.03 846 24.98 13.1 55.5 59 5.4 41.7
20:25 1017 30.03 846 24.98 12.9 55.2 60 5.4 41.7
20:30 1017 30.03 846 24.98 12.8 55 60 5.3 41.6
20:35 1017 30.03 846 24.98 12.6 54.7 61 5.3 41.5
20:40 1017 30.03 846 24.98 12.5 54.4 61 5.2 41.4
20:45 1017 30.03 847 25.01 12.4 54.3 62 5.4 41.7
20:50 1017 30.03 847 25.01 12.3 54.1 62 5.3 41.6
20:55 1018 30.06 847 25.01 12.2 53.9 63 5.4 41.7
21:00 1018 30.06 847 25.01 12.1 53.7 63 5.4 41.6
21:05 1018 30.06 847 25.01 12 53.6 64 5.4 41.7
21:10 1018 30.06 847 25.01 11.9 53.5 64 5.4 41.8
21:15 1018 30.06 847 25.01 11.9 53.3 64 5.4 41.7
21:20 1018 30.06 847 25.01 11.8 53.2 65 5.4 41.7
21:25 1018 30.06 847 25.01 11.8 53.2 64 5.3 41.6
21:30 1018 30.06 847 25.01 11.7 53 65 5.3 41.5
21:35 1018 30.06 847 25.01 11.6 52.9 65 5.3 41.5
21:40 1018 30.06 847 25.01 11.5 52.8 65 5.3 41.5
21:45 1018 30.06 847 25.01 11.5 52.6 65 5.3 41.5
21:50 1018 30.06 847 25.01 11.4 52.6 66 5.3 41.5
21:55 1018 30.06 848 25.04 11.4 52.5 66 5.3 41.5
22:00 1019 30.09 848 25.04 11.3 52.4 66 5.2 41.3
22:05 1018 30.06 848 25.04 11.3 52.3 66 5.3 41.5
22:10 1018 30.06 848 25.04 11.2 52.1 67 5.3 41.5
22:15 1018 30.06 848 25.04 11.1 51.9 66 5.1 41.2
22:20 1019 30.09 848 25.04 11.1 52 66 5.1 41.2
22:25 1019 30.09 848 25.04 11.1 51.9 66 5.1 41.2
22:30 1019 30.09 848 25.04 11.1 51.9 67 5.1 41.2
22:35 1019 30.09 848 25.04 11 51.8 67 5.1 41.1
22:40 1019 30.09 848 25.04 11.1 51.9 66 5 41
22:45 1019 30.09 848 25.04 11.1 51.9 66 5.1 41.1
22:50 1019 30.09 848 25.04 11 51.7 66 5 41
22:55 1019 30.09 848 25.04 10.9 51.7 66 5 40.9
23:00 1019 30.09 848 25.04 10.9 51.6 67 5 40.9
23:05 1019 30.09 848 25.04 10.9 51.5 67 4.9 40.9
23:10 1019 30.09 848 25.04 10.8 51.5 67 5 40.9
23:15 1019 30.09 848 25.04 10.7 51.3 67 4.9 40.8
23:20 1019 30.09 848 25.04 10.7 51.2 67 4.7 40.5
23:25 1019 30.09 848 25.04 10.6 51.1 67 4.7 40.5
23:30 1019 30.09 848 25.04 10.5 50.9 67 4.7 40.4
23:35 1019 30.09 848 25.04 10.4 50.7 67 4.7 40.4
23:40 1019 30.09 848 25.04 10.3 50.6 68 4.7 40.5
23:45 1019 30.09 848 25.04 10.2 50.3 68 4.7 40.4
23:50 1019 30.09 848 25.04 10.1 50.2 69 4.6 40.4
23:55 1019 30.09 848 25.04 10 50.1 69 4.6 40.2
24:00 1019 30.09 848 25.04 9.9 49.9 69 4.6 40.2